Time;durP1;ratioP1;P1;durP2;ratioP2;P2;SDS_P1;SDS_P2;PMS_P1;PMS_P2;Temp;Humidity;BMP_temperature;BMP_pressure;BME280_temperature;BME280_humidity;BME280_pressure;Samples;Min_cycle;Max_cycle;Signal;HPM_P1;HPM_P2
2022/10/31 00:01:38;;;;;;;17.33;2.53;;;;;;;9.95;100.00;101053.25;5042450;28;20056;-55
2022/10/31 00:04:05;;;;;;;5.60;1.52;;;;;;;9.93;100.00;101042.00;5033415;28;20152;-52
2022/10/31 00:06:30;;;;;;;14.57;3.05;;;;;;;9.87;100.00;101043.53;5033084;28;20072;-54
2022/10/31 00:09:02;;;;;;;12.13;1.75;;;;;;;9.86;100.00;101046.31;5018407;28;20033;-54
2022/10/31 00:11:28;;;;;;;7.28;1.90;;;;;;;9.85;100.00;101052.63;5027878;28;20044;-50
2022/10/31 00:13:53;;;;;;;3.97;1.00;;;;;;;9.81;100.00;101052.16;5038902;28;20454;-48
2022/10/31 00:16:22;;;;;;;3.63;1.27;;;;;;;9.75;100.00;101051.00;5037741;28;20033;-50
2022/10/31 00:18:51;;;;;;;5.78;1.33;;;;;;;9.68;100.00;101050.06;5033251;28;20146;-53
2022/10/31 00:21:17;;;;;;;6.80;0.98;;;;;;;9.63;100.00;101049.75;5037284;28;20409;-49
2022/10/31 00:23:43;;;;;;;7.32;1.33;;;;;;;9.59;100.00;101041.31;5032815;28;20074;-52
2022/10/31 00:26:08;;;;;;;5.05;1.38;;;;;;;9.60;100.00;101045.63;5033881;28;20029;-55
2022/10/31 00:28:34;;;;;;;4.60;0.77;;;;;;;9.63;100.00;101038.31;5034408;28;20495;-55
2022/10/31 00:31:04;;;;;;;9.07;1.98;;;;;;;9.65;100.00;101039.78;5033092;28;20045;-55
2022/10/31 00:33:30;;;;;;;10.55;3.22;;;;;;;9.61;100.00;101041.16;5033982;28;20410;-55
2022/10/31 00:35:56;;;;;;;10.80;2.28;;;;;;;9.58;100.00;101047.59;5032608;28;20033;-53
2022/10/31 00:38:23;;;;;;;7.38;1.42;;;;;;;9.54;100.00;101048.94;5037203;28;20490;-52
2022/10/31 00:40:48;;;;;;;6.47;1.45;;;;;;;9.45;100.00;101043.81;5032917;28;20032;-53
2022/10/31 00:43:14;;;;;;;7.03;1.10;;;;;;;9.37;100.00;101047.31;5027328;28;20029;-55
2022/10/31 00:45:40;;;;;;;4.50;0.70;;;;;;;9.36;100.00;101041.19;5030565;28;20067;-49
2022/10/31 00:48:06;;;;;;;8.25;1.80;;;;;;;9.33;100.00;101038.06;5035165;28;20035;-52
2022/10/31 00:50:31;;;;;;;4.93;0.60;;;;;;;9.39;100.00;101040.84;5042373;28;20029;-50
2022/10/31 00:52:57;;;;;;;4.03;0.85;;;;;;;9.39;100.00;101048.78;5035050;28;20028;-51
2022/10/31 00:55:23;;;;;;;6.40;1.00;;;;;;;9.38;100.00;101038.41;5040793;28;21514;-50
2022/10/31 00:57:49;;;;;;;5.40;1.58;;;;;;;9.38;100.00;101041.88;5037968;28;20033;-51
2022/10/31 01:00:15;;;;;;;11.13;1.23;;;;;;;9.30;100.00;101041.88;5035430;28;20017;-54
2022/10/31 01:02:40;;;;;;;10.10;1.38;;;;;;;9.28;100.00;101043.88;5037879;28;20087;-49
2022/10/31 01:05:06;;;;;;;11.85;2.30;;;;;;;9.28;100.00;101041.22;5033503;28;20018;-51
2022/10/31 01:07:31;;;;;;;5.60;0.90;;;;;;;9.25;100.00;101038.91;5032174;28;20109;-54
2022/10/31 01:09:56;;;;;;;9.25;0.85;;;;;;;9.25;100.00;101040.75;5033001;28;20017;-54
2022/10/31 01:12:22;;;;;;;4.70;0.70;;;;;;;9.25;100.00;101046.84;5042179;28;20034;-52
2022/10/31 01:14:47;;;;;;;6.00;0.75;;;;;;;9.30;100.00;101041.06;5038917;28;20049;-51
2022/10/31 01:17:13;;;;;;;7.07;0.73;;;;;;;9.25;100.00;101041.56;5025786;28;20520;-52
2022/10/31 01:19:38;;;;;;;7.97;2.45;;;;;;;9.25;100.00;101038.91;5030418;28;20483;-54
2022/10/31 01:22:04;;;;;;;8.93;1.67;;;;;;;9.23;100.00;101042.72;5032314;28;20382;-56
2022/10/31 01:24:29;;;;;;;4.00;1.67;;;;;;;9.22;100.00;101041.91;5032380;28;20128;-55
2022/10/31 01:26:55;;;;;;;10.90;3.65;;;;;;;9.21;100.00;101045.53;5038020;28;20029;-55
2022/10/31 01:29:20;;;;;;;5.72;2.00;;;;;;;9.17;100.00;101037.13;5040381;28;20482;-53
2022/10/31 01:31:46;;;;;;;9.57;2.25;;;;;;;9.21;100.00;101039.41;5038529;28;20091;-52
2022/10/31 01:34:14;;;;;;;6.45;0.93;;;;;;;9.28;100.00;101041.22;5034660;28;20456;-55
2022/10/31 01:36:39;;;;;;;6.07;1.42;;;;;;;9.22;100.00;101044.56;5042738;28;20473;-56
2022/10/31 01:39:10;;;;;;;7.35;2.03;;;;;;;9.22;100.00;101041.91;5036670;28;20309;-53
2022/10/31 01:41:40;;;;;;;9.10;0.65;;;;;;;9.23;100.00;101042.72;5033212;28;20749;-55
2022/10/31 01:44:14;;;;;;;5.07;1.60;;;;;;;9.22;100.00;101056.97;5034052;28;20422;-49
2022/10/31 01:46:44;;;;;;;3.13;1.20;;;;;;;9.34;100.00;101040.53;5040490;28;20037;-49
2022/10/31 01:49:50;;;;;;;14.88;1.20;;;;;;;9.45;100.00;101046.47;5036661;28;20064;-50
2022/10/31 01:52:24;;;;;;;14.55;3.75;;;;;;;9.43;100.00;101041.38;5034564;28;20528;-51
2022/10/31 01:55:20;;;;;;;9.05;2.28;;;;;;;9.49;100.00;101045.16;5038401;28;20481;-50
2022/10/31 01:57:51;;;;;;;6.05;0.65;;;;;;;9.46;100.00;101058.72;5033006;28;20056;-53
2022/10/31 02:00:19;;;;;;;16.33;3.95;;;;;;;9.54;100.00;101048.94;5036849;28;20021;-51
2022/10/31 02:02:46;;;;;;;12.25;3.10;;;;;;;9.67;100.00;101032.50;5036465;28;20072;-54
2022/10/31 02:05:18;;;;;;;9.60;0.70;;;;;;;9.78;100.00;101049.84;5040501;28;20033;-52
2022/10/31 02:07:52;;;;;;;6.93;1.20;;;;;;;9.91;100.00;101050.09;5040781;28;20029;-51
2022/10/31 02:10:21;;;;;;;7.97;1.48;;;;;;;9.99;100.00;101055.38;5035988;28;20101;-49
2022/10/31 02:12:47;;;;;;;4.50;1.55;;;;;;;10.06;100.00;101050.22;5040457;28;20040;-53
2022/10/31 02:15:12;;;;;;;7.25;1.42;;;;;;;10.17;100.00;101038.38;5026219;28;20552;-55
2022/10/31 02:17:38;;;;;;;6.22;1.15;;;;;;;10.21;100.00;101039.69;5036824;28;20033;-55
2022/10/31 02:20:16;;;;;;;7.95;1.27;;;;;;;10.18;100.00;101040.88;5035724;28;20032;-54
2022/10/31 02:23:20;;;;;;;8.45;1.73;;;;;;;10.11;100.00;101037.25;5033329;28;20033;-51
2022/10/31 02:26:10;;;;;;;14.02;1.02;;;;;;;9.97;100.00;101036.19;5043233;28;20039;-55
2022/10/31 02:29:13;;;;;;;5.85;0.65;;;;;;;9.87;100.00;101035.56;5044517;28;20132;-53
2022/10/31 02:32:06;;;;;;;8.40;2.30;;;;;;;9.89;100.00;101033.59;5039165;28;20053;-53
2022/10/31 02:34:50;;;;;;;7.78;0.60;;;;;;;9.86;100.00;101027.78;5045630;28;20111;-51
2022/10/31 02:37:42;;;;;;;4.70;1.00;;;;;;;9.85;100.00;101023.50;5037177;28;20505;-52
2022/10/31 02:40:20;;;;;;;4.10;1.02;;;;;;;9.75;100.00;101027.16;5037750;28;20037;-52
2022/10/31 02:42:58;;;;;;;3.10;0.63;;;;;;;9.77;100.00;101019.06;5038002;28;20029;-55
2022/10/31 02:45:32;;;;;;;5.00;0.80;;;;;;;9.83;100.00;101019.22;5038469;28;20509;-49
2022/10/31 02:48:03;;;;;;;3.22;0.93;;;;;;;9.79;100.00;101014.44;5038926;28;20025;-52
2022/10/31 02:50:37;;;;;;;7.47;0.90;;;;;;;9.92;100.00;101012.03;5038548;28;20036;-53
2022/10/31 02:53:02;;;;;;;6.57;0.90;;;;;;;9.94;100.00;101014.50;5037714;28;20034;-53
2022/10/31 02:55:28;;;;;;;16.45;3.08;;;;;;;9.92;100.00;101020.00;5030428;28;20697;-53
2022/10/31 02:58:00;;;;;;;7.97;1.33;;;;;;;9.85;100.00;101016.38;5035319;28;20462;-50
2022/10/31 03:00:27;;;;;;;6.85;0.38;;;;;;;9.78;100.00;101018.06;5037224;28;20119;-52
2022/10/31 03:03:10;;;;;;;3.22;0.85;;;;;;;9.74;100.00;101024.72;5029032;28;20048;-53
2022/10/31 03:05:38;;;;;;;8.38;1.70;;;;;;;9.68;100.00;101028.03;5032896;28;20059;-52
2022/10/31 03:08:09;;;;;;;7.15;1.63;;;;;;;9.73;100.00;101031.00;5036684;28;20075;-52
2022/10/31 03:10:57;;;;;;;6.43;0.88;;;;;;;9.84;100.00;101030.63;5045576;28;20407;-56
2022/10/31 03:13:49;;;;;;;5.97;1.45;;;;;;;9.88;100.00;101031.91;5045894;28;20051;-53
2022/10/31 03:16:25;;;;;;;9.73;1.00;;;;;;;9.96;100.00;101031.88;5032169;28;20340;-48
2022/10/31 03:18:58;;;;;;;6.50;1.60;;;;;;;9.96;100.00;101029.22;5034678;28;20033;-51
2022/10/31 03:21:31;;;;;;;10.02;1.73;;;;;;;9.94;100.00;101020.66;5034307;28;20049;-50
2022/10/31 03:23:58;;;;;;;7.55;1.70;;;;;;;9.86;100.00;101023.34;5038592;28;20033;-52
2022/10/31 03:26:25;;;;;;;2.70;0.90;;;;;;;9.81;100.00;101021.19;5036059;28;20468;-51
2022/10/31 03:28:56;;;;;;;3.92;1.00;;;;;;;9.84;100.00;101020.03;5038235;28;20049;-54
2022/10/31 03:31:45;;;;;;;6.85;0.80;;;;;;;9.79;100.00;101025.84;5040752;28;20029;-48
2022/10/31 03:34:12;;;;;;;3.40;0.75;;;;;;;9.74;100.00;101020.22;5044586;28;20164;-51
2022/10/31 03:36:40;;;;;;;5.13;1.13;;;;;;;9.64;100.00;101019.63;5035474;28;20021;-54
2022/10/31 03:39:08;;;;;;;3.15;0.22;;;;;;;9.55;100.00;101021.47;5034823;28;20126;-51
2022/10/31 03:41:40;;;;;;;4.30;1.25;;;;;;;9.55;100.00;101020.63;5025389;28;20048;-54
2022/10/31 03:44:11;;;;;;;8.00;0.80;;;;;;;9.50;100.00;101012.38;5034443;28;20034;-53
2022/10/31 03:46:36;;;;;;;1.77;0.88;;;;;;;9.43;100.00;101014.91;5034709;28;20044;-51
2022/10/31 03:49:03;;;;;;;3.03;0.47;;;;;;;9.52;100.00;101013.84;5034191;28;20025;-52
2022/10/31 03:51:37;;;;;;;4.43;1.05;;;;;;;9.57;100.00;101011.53;5029494;28;20435;-54
2022/10/31 03:54:08;;;;;;;5.20;0.88;;;;;;;9.57;100.00;101013.34;5033257;28;20486;-53
2022/10/31 03:56:52;;;;;;;;;;;;;;;9.61;100.00;101004.91;5036141;28;20481;-49
2022/10/31 03:59:26;;;;;;;19.08;1.02;;;;;;;9.58;100.00;101017.66;5033637;28;19973;-50
2022/10/31 04:01:56;;;;;;;7.13;0.57;;;;;;;9.60;100.00;101013.00;5034262;28;20075;-48
2022/10/31 04:04:22;;;;;;;8.95;1.00;;;;;;;9.67;100.00;101013.16;5036267;28;20037;-49
2022/10/31 04:06:50;;;;;;;12.52;2.50;;;;;;;9.80;100.00;101010.78;5038849;28;20044;-55
2022/10/31 04:09:18;;;;;;;6.07;1.45;;;;;;;9.78;100.00;101005.66;5037702;28;20524;-51
2022/10/31 04:11:51;;;;;;;10.02;2.70;;;;;;;9.73;100.00;101008.00;5029528;28;20482;-49
2022/10/31 04:14:17;;;;;;;6.43;1.90;;;;;;;9.68;100.00;100998.91;5040894;28;20039;-53
2022/10/31 04:16:43;;;;;;;4.38;1.15;;;;;;;9.66;100.00;101000.91;5031788;28;20025;-54
2022/10/31 04:19:10;;;;;;;4.93;0.75;;;;;;;9.65;100.00;101000.06;5034140;28;20032;-52
2022/10/31 04:21:35;;;;;;;3.90;0.73;;;;;;;9.68;100.00;100998.91;5028738;28;20136;-51
2022/10/31 04:24:01;;;;;;;8.35;1.13;;;;;;;9.67;100.00;100998.09;5042790;28;20127;-54
2022/10/31 04:26:26;;;;;;;5.22;1.50;;;;;;;9.66;100.00;100988.50;5031316;28;20494;-55
2022/10/31 04:28:52;;;;;;;6.38;0.88;;;;;;;9.58;100.00;100996.47;5035907;28;20083;-54
2022/10/31 04:31:17;;;;;;;8.52;0.70;;;;;;;9.59;100.00;100995.47;5030966;28;20756;-53
2022/10/31 04:33:43;;;;;;;6.43;1.33;;;;;;;9.60;100.00;100994.47;5034445;28;20029;-50
2022/10/31 04:36:08;;;;;;;4.93;0.77;;;;;;;9.60;100.00;100990.03;5031194;28;20489;-53
2022/10/31 04:38:34;;;;;;;3.47;0.70;;;;;;;9.60;100.00;100982.06;5036950;28;20529;-53
2022/10/31 04:40:59;;;;;;;5.35;1.85;;;;;;;9.60;100.00;100992.66;5034735;28;20065;-50
2022/10/31 04:43:25;;;;;;;3.97;0.60;;;;;;;9.65;100.00;100986.84;5033558;28;20124;-53
2022/10/31 04:45:50;;;;;;;4.40;0.90;;;;;;;9.72;100.00;100985.16;5030019;28;20025;-54
2022/10/31 04:48:16;;;;;;;6.95;1.67;;;;;;;9.78;100.00;100973.03;5036015;28;20083;-55
2022/10/31 04:50:41;;;;;;;8.73;0.88;;;;;;;9.89;100.00;100985.91;5038771;28;20102;-55
2022/10/31 04:53:07;;;;;;;8.30;1.10;;;;;;;9.91;100.00;100983.06;5036569;28;20029;-52
2022/10/31 04:55:32;;;;;;;4.25;1.90;;;;;;;9.94;100.00;100980.06;5036216;28;21740;-49
2022/10/31 04:57:58;;;;;;;5.38;0.57;;;;;;;9.95;100.00;100981.72;5033041;28;20025;-49
2022/10/31 05:00:24;;;;;;;5.43;2.00;;;;;;;9.98;100.00;100984.84;5031162;28;20639;-51
2022/10/31 05:02:56;;;;;;;6.05;1.85;;;;;;;9.99;100.00;100983.00;5037543;28;20040;-51
2022/10/31 05:05:27;;;;;;;17.33;1.92;;;;;;;9.98;100.00;100981.38;5035720;28;20377;-52
2022/10/31 05:07:53;;;;;;;3.10;1.05;;;;;;;9.93;100.00;100976.59;5031352;28;20030;-49
2022/10/31 05:10:22;;;;;;;15.57;1.63;;;;;;;9.93;100.00;100979.25;5037601;28;20036;-51
2022/10/31 05:12:50;;;;;;;4.18;0.60;;;;;;;9.95;100.00;100989.69;5040959;28;20031;-51
2022/10/31 05:15:17;;;;;;;7.88;0.77;;;;;;;10.05;100.00;100987.63;5037975;28;20025;-54
2022/10/31 05:17:43;;;;;;;7.47;0.98;;;;;;;10.08;100.00;100984.63;5032731;28;20029;-50
2022/10/31 05:20:09;;;;;;;4.38;1.23;;;;;;;10.10;100.00;100990.59;5034019;28;20063;-54
2022/10/31 05:22:34;;;;;;;7.43;1.73;;;;;;;10.13;100.00;100987.56;5034571;28;20041;-50
2022/10/31 05:24:59;;;;;;;4.22;0.52;;;;;;;10.17;100.00;100988.88;5036380;28;20514;-53
2022/10/31 05:27:26;;;;;;;5.90;1.50;;;;;;;10.17;100.00;100980.94;5031236;28;20453;-54
2022/10/31 05:29:51;;;;;;;2.83;2.20;;;;;;;10.11;100.00;100978.97;5037498;28;20120;-54
2022/10/31 05:32:16;;;;;;;9.70;1.42;;;;;;;10.05;100.00;100967.25;5033761;28;20108;-56
2022/10/31 05:34:42;;;;;;;4.28;0.57;;;;;;;10.02;100.00;100969.44;5033898;28;20065;-56
2022/10/31 05:37:07;;;;;;;10.52;1.17;;;;;;;10.02;100.00;100970.25;5030959;28;20433;-49
2022/10/31 05:39:32;;;;;;;10.52;2.40;;;;;;;9.98;100.00;100968.94;5032746;28;20465;-55
2022/10/31 05:41:58;;;;;;;6.07;1.40;;;;;;;10.01;100.00;100963.28;5042083;28;20025;-53
2022/10/31 05:44:23;;;;;;;5.53;1.27;;;;;;;10.00;100.00;100966.97;5032223;28;20078;-49
2022/10/31 05:46:48;;;;;;;11.43;2.95;;;;;;;10.01;100.00;100967.78;5041051;28;20455;-56
2022/10/31 05:49:14;;;;;;;3.25;0.73;;;;;;;10.03;100.00;100965.78;5032746;28;20029;-49
2022/10/31 05:51:39;;;;;;;14.60;1.73;;;;;;;10.06;100.00;100976.03;5033530;28;20087;-49
2022/10/31 05:54:05;;;;;;;3.33;0.70;;;;;;;10.11;100.00;100964.91;5038313;28;20037;-53
2022/10/31 05:56:30;;;;;;;5.47;0.75;;;;;;;10.12;100.00;100970.03;5036697;28;20390;-50
2022/10/31 05:58:55;;;;;;;4.57;1.05;;;;;;;10.20;100.00;100961.22;5042743;28;20028;-52
2022/10/31 06:01:21;;;;;;;8.20;0.52;;;;;;;10.20;100.00;100967.31;5038494;28;20120;-55
2022/10/31 06:03:46;;;;;;;7.38;0.88;;;;;;;10.20;100.00;100971.81;5035829;28;20478;-54
2022/10/31 06:06:11;;;;;;;3.42;1.38;;;;;;;10.26;100.00;100961.31;5034535;28;20036;-55
2022/10/31 06:08:37;;;;;;;7.53;2.92;;;;;;;10.31;100.00;100967.94;5039410;28;20091;-56
2022/10/31 06:11:02;;;;;;;12.98;1.73;;;;;;;10.33;100.00;100960.66;5038264;28;20501;-51
2022/10/31 06:13:28;;;;;;;6.13;0.85;;;;;;;10.36;100.00;100965.59;5033207;28;20028;-53
2022/10/31 06:15:53;;;;;;;9.75;1.35;;;;;;;10.34;100.00;100960.44;5024570;28;20033;-50
2022/10/31 06:18:19;;;;;;;3.53;0.65;;;;;;;10.34;100.00;100962.28;5033232;28;20025;-52
2022/10/31 06:20:44;;;;;;;3.30;0.90;;;;;;;10.36;100.00;100954.97;5034532;28;20044;-51
2022/10/31 06:23:09;;;;;;;6.88;1.25;;;;;;;10.35;100.00;100956.81;5037845;28;20140;-55
2022/10/31 06:25:35;;;;;;;7.72;0.77;;;;;;;10.37;100.00;100957.44;5034720;28;20021;-55
2022/10/31 06:28:00;;;;;;;5.63;1.83;;;;;;;10.38;100.00;100953.00;5039851;28;20037;-56
2022/10/31 06:30:26;;;;;;;8.43;0.88;;;;;;;10.42;100.00;100954.25;5041831;28;20131;-54
2022/10/31 06:32:51;;;;;;;5.43;0.85;;;;;;;10.43;100.00;100950.63;5037031;28;20028;-55
2022/10/31 06:35:17;;;;;;;12.88;1.05;;;;;;;10.41;100.00;100947.31;5040261;28;20064;-55
2022/10/31 06:37:50;;;;;;;4.05;0.77;;;;;;;10.38;100.00;100945.84;5041095;28;20149;-53
2022/10/31 06:40:15;;;;;;;4.63;0.55;;;;;;;10.35;100.00;100948.03;5039823;28;20029;-56
2022/10/31 06:42:40;;;;;;;0.65;0.47;;;;;;;10.34;100.00;100952.50;5044967;28;20049;-53
2022/10/31 06:45:06;;;;;;;8.00;1.10;;;;;;;10.36;100.00;100939.91;5038204;28;20386;-54
2022/10/31 06:47:31;;;;;;;2.80;0.45;;;;;;;10.36;100.00;100949.69;5039436;28;20459;-55
2022/10/31 06:49:57;;;;;;;7.28;1.10;;;;;;;10.39;100.00;100938.72;5039512;28;20060;-51
2022/10/31 06:52:23;;;;;;;8.85;3.50;;;;;;;10.37;100.00;100940.72;5038793;28;20053;-51
2022/10/31 06:54:48;;;;;;;11.82;0.95;;;;;;;10.37;100.00;100946.84;5039749;28;20036;-50
2022/10/31 06:57:13;;;;;;;7.05;1.00;;;;;;;10.38;100.00;100947.69;5038349;28;20033;-54
2022/10/31 06:59:39;;;;;;;6.72;0.82;;;;;;;10.40;100.00;100946.50;5042343;28;20060;-48
2022/10/31 07:02:05;;;;;;;7.63;1.25;;;;;;;10.37;100.00;100940.72;5040424;28;20032;-56
2022/10/31 07:04:30;;;;;;;2.67;0.82;;;;;;;10.36;100.00;100936.44;5031942;28;20083;-51
2022/10/31 07:06:55;;;;;;;7.10;1.83;;;;;;;10.36;100.00;100944.38;5039237;28;20033;-54
2022/10/31 07:09:21;;;;;;;3.88;1.05;;;;;;;10.37;100.00;100932.78;5035783;28;20029;-53
2022/10/31 07:11:46;;;;;;;6.82;2.67;;;;;;;10.32;100.00;100930.66;5029250;28;20834;-49
2022/10/31 07:14:11;;;;;;;7.22;2.55;;;;;;;10.32;100.00;100927.19;5032541;28;20036;-53
2022/10/31 07:16:37;;;;;;;10.30;1.08;;;;;;;10.36;100.00;100928.47;5042431;28;20108;-51
2022/10/31 07:19:02;;;;;;;5.22;0.77;;;;;;;10.37;100.00;100936.22;5035469;28;20028;-56
2022/10/31 07:21:28;;;;;;;7.22;1.17;;;;;;;10.34;100.00;100941.91;5032224;28;20083;-54
2022/10/31 07:23:53;;;;;;;4.97;1.52;;;;;;;10.33;100.00;100936.78;5035918;28;20333;-53
2022/10/31 07:26:18;;;;;;;3.75;1.00;;;;;;;10.34;100.00;100941.91;5031278;28;20033;-54
2022/10/31 07:28:46;;;;;;;3.63;1.23;;;;;;;10.31;100.00;100939.59;5037642;28;20128;-50
2022/10/31 07:31:12;;;;;;;5.38;1.17;;;;;;;10.27;100.00;100930.31;5032382;28;20026;-56
2022/10/31 07:33:37;;;;;;;5.03;0.75;;;;;;;10.29;100.00;100946.09;5027479;28;20525;-53
2022/10/31 07:36:02;;;;;;;5.93;0.90;;;;;;;10.30;100.00;100950.38;5038237;28;20545;-55
2022/10/31 07:38:28;;;;;;;3.08;1.13;;;;;;;10.38;100.00;100942.38;5037459;28;20048;-54
2022/10/31 07:40:53;;;;;;;6.63;1.45;;;;;;;10.41;100.00;100942.84;5037456;28;20252;-55
2022/10/31 07:43:19;;;;;;;4.72;1.75;;;;;;;10.51;100.00;100950.56;5033499;28;20037;-54
2022/10/31 07:45:49;;;;;;;6.30;2.22;;;;;;;10.63;100.00;100951.75;5034607;28;20037;-54
2022/10/31 07:48:14;;;;;;;6.68;1.33;;;;;;;10.69;100.00;100934.31;5038322;28;20068;-52
2022/10/31 07:50:40;;;;;;;9.95;1.63;;;;;;;10.77;100.00;100946.69;5029419;28;20060;-54
2022/10/31 07:53:07;;;;;;;4.80;0.50;;;;;;;10.83;100.00;100943.28;5027960;28;20075;-50
2022/10/31 07:55:34;;;;;;;6.20;1.05;;;;;;;10.83;100.00;100951.25;5031798;28;20029;-52
2022/10/31 07:58:11;;;;;;;4.20;0.98;;;;;;;10.87;100.00;100937.44;5028555;28;20029;-55
2022/10/31 08:00:38;;;;;;;11.98;1.88;;;;;;;10.92;100.00;100950.16;5031978;28;20389;-52
2022/10/31 08:03:06;;;;;;;6.22;0.90;;;;;;;10.93;100.00;100938.53;5033033;28;20021;-50
2022/10/31 08:05:33;;;;;;;7.45;1.20;;;;;;;10.96;100.00;100945.31;5030139;28;20017;-53
2022/10/31 08:07:59;;;;;;;4.78;0.85;;;;;;;10.99;100.00;100935.16;5034417;28;20025;-52
2022/10/31 08:10:26;;;;;;;7.72;1.27;;;;;;;11.05;100.00;100928.31;5029688;28;20079;-50
2022/10/31 08:13:02;;;;;;;13.00;1.50;;;;;;;11.09;100.00;100935.69;5027969;28;20029;-50
2022/10/31 08:15:28;;;;;;;6.32;2.03;;;;;;;11.12;100.00;100940.63;5029382;28;20040;-53
2022/10/31 08:17:53;;;;;;;5.75;0.77;;;;;;;11.24;100.00;100942.84;5034389;28;20021;-51
2022/10/31 08:20:20;;;;;;;4.95;0.82;;;;;;;11.28;100.00;100946.75;5031132;28;20474;-56
2022/10/31 08:22:59;;;;;;;11.02;1.60;;;;;;;11.38;100.00;100949.16;5037268;28;20033;-55
2022/10/31 08:25:25;;;;;;;11.93;1.75;;;;;;;11.37;100.00;100948.31;5038296;28;20033;-54
2022/10/31 08:27:52;;;;;;;4.53;2.00;;;;;;;11.43;100.00;100950.22;5028034;28;20043;-56
2022/10/31 08:30:19;;;;;;;9.15;2.40;;;;;;;11.42;100.00;100940.63;5036429;28;20051;-57
2022/10/31 08:32:45;;;;;;;3.85;0.65;;;;;;;11.43;100.00;100939.59;5031486;28;20532;-52
2022/10/31 08:35:11;;;;;;;3.70;0.60;;;;;;;11.48;100.00;100934.56;5033318;28;20509;-56
2022/10/31 08:37:36;;;;;;;10.40;1.30;;;;;;;11.48;100.00;100944.38;5031845;28;20028;-52
2022/10/31 08:40:02;;;;;;;7.63;1.85;;;;;;;11.54;100.00;100941.81;5035305;28;20037;-57
2022/10/31 08:42:27;;;;;;;6.03;1.13;;;;;;;11.65;100.00;100942.34;5039730;28;20131;-57
2022/10/31 08:44:53;;;;;;;7.88;0.73;;;;;;;11.70;100.00;100926.66;5032724;28;20036;-54
2022/10/31 08:47:18;;;;;;;9.88;1.25;;;;;;;11.83;100.00;100931.31;5030004;28;20200;-55
2022/10/31 08:49:43;;;;;;;8.32;2.08;;;;;;;11.82;100.00;100919.00;5028917;28;20029;-55
2022/10/31 08:52:09;;;;;;;8.13;1.33;;;;;;;11.81;100.00;100928.00;5034776;28;20051;-48
2022/10/31 08:54:34;;;;;;;8.38;1.33;;;;;;;11.87;100.00;100913.97;5038722;28;20057;-54
2022/10/31 08:56:59;;;;;;;5.05;1.05;;;;;;;11.90;100.00;100918.91;5033019;28;20475;-56
2022/10/31 08:59:25;;;;;;;7.78;1.42;;;;;;;11.95;100.00;100912.06;5029016;28;20437;-50
2022/10/31 09:01:50;;;;;;;9.00;0.90;;;;;;;11.99;100.00;100910.63;5028184;28;20048;-57
2022/10/31 09:04:15;;;;;;;6.50;1.15;;;;;;;12.12;100.00;100909.13;5026296;28;20473;-54
2022/10/31 09:06:41;;;;;;;8.93;2.15;;;;;;;12.26;100.00;100913.53;5030455;28;20178;-53
2022/10/31 09:09:06;;;;;;;10.27;1.63;;;;;;;12.27;100.00;100909.88;5031040;28;20057;-54
2022/10/31 09:11:32;;;;;;;7.45;1.42;;;;;;;12.25;100.00;100900.44;5030909;28;20076;-50
2022/10/31 09:13:57;;;;;;;6.97;1.40;;;;;;;12.26;100.00;100892.25;5033348;28;20064;-55
2022/10/31 09:16:22;;;;;;;9.05;1.40;;;;;;;12.26;100.00;100884.28;5036495;28;20037;-54
2022/10/31 09:18:48;;;;;;;3.05;0.55;;;;;;;12.23;100.00;100879.34;5030930;28;20032;-54
2022/10/31 09:21:13;;;;;;;7.28;0.80;;;;;;;12.35;100.00;100877.00;5033579;28;20117;-54
2022/10/31 09:23:38;;;;;;;7.97;1.00;;;;;;;12.44;100.00;100876.69;5037199;28;20045;-53
2022/10/31 09:26:04;;;;;;;9.43;1.20;;;;;;;12.46;100.00;100870.34;5034226;28;20083;-50
2022/10/31 09:28:29;;;;;;;8.52;1.38;;;;;;;12.53;100.00;100874.69;5034856;28;20059;-52
2022/10/31 09:30:55;;;;;;;16.98;3.08;;;;;;;12.59;100.00;100862.44;5035587;28;20029;-56
2022/10/31 09:33:21;;;;;;;6.78;1.00;;;;;;;12.65;100.00;100870.47;5027840;28;20051;-55
2022/10/31 09:35:46;;;;;;;9.65;1.13;;;;;;;12.71;100.00;100860.88;5034197;28;20069;-56
2022/10/31 09:38:21;;;;;;;7.18;1.92;;;;;;;12.69;100.00;100852.28;5025883;28;20033;-57
2022/10/31 09:40:57;;;;;;;16.63;2.75;;;;;;;12.73;100.00;100850.06;5031937;28;20179;-56
2022/10/31 09:43:34;;;;;;;7.47;1.58;;;;;;;12.78;100.00;100834.34;5028929;28;20047;-57
2022/10/31 09:46:18;;;;;;;8.18;2.25;;;;;;;12.85;100.00;100832.50;5031251;28;20055;-53
2022/10/31 09:49:04;;;;;;;4.97;0.82;;;;;;;12.99;100.00;100818.25;5035480;28;20228;-52
2022/10/31 09:51:37;;;;;;;12.35;1.30;;;;;;;13.23;100.00;100811.56;5033577;28;20085;-51
2022/10/31 09:54:32;;;;;;;11.55;2.33;;;;;;;13.36;100.00;100804.69;5036281;28;20083;-55
2022/10/31 09:57:00;;;;;;;9.32;1.38;;;;;;;13.43;100.00;100797.53;5028048;28;20036;-54
2022/10/31 09:59:38;;;;;;;4.13;1.02;;;;;;;13.51;100.00;100802.66;5018893;28;20146;-52
2022/10/31 10:02:13;;;;;;;12.15;2.63;;;;;;;13.71;100.00;100792.84;5033296;28;20040;-55
2022/10/31 10:04:58;;;;;;;6.95;1.25;;;;;;;13.88;100.00;100787.09;5028248;28;20091;-56
2022/10/31 10:07:39;;;;;;;5.20;0.60;;;;;;;13.93;100.00;100781.97;5030990;28;20647;-52
2022/10/31 10:10:17;;;;;;;6.40;1.80;;;;;;;13.94;100.00;100775.66;5032330;28;20493;-52
2022/10/31 10:12:48;;;;;;;7.80;1.42;;;;;;;14.02;100.00;100780.75;5025668;28;20040;-48
2022/10/31 10:15:17;;;;;;;7.63;0.55;;;;;;;13.94;100.00;100757.78;5030493;28;20021;-54
2022/10/31 10:18:23;;;;;;;7.03;0.75;;;;;;;13.93;100.00;100748.13;5025610;28;20029;-57
2022/10/31 10:21:03;;;;;;;3.28;1.35;;;;;;;13.88;100.00;100733.81;5031519;28;20076;-54
2022/10/31 10:23:38;;;;;;;12.02;1.25;;;;;;;13.90;100.00;100726.41;5031839;28;20752;-53
2022/10/31 10:26:12;;;;;;;7.18;0.95;;;;;;;13.78;100.00;100712.06;5038914;28;20037;-50
2022/10/31 10:28:41;;;;;;;20.38;2.67;;;;;;;13.78;100.00;100701.41;5035699;28;20047;-53
2022/10/31 10:31:32;;;;;;;5.65;0.88;;;;;;;13.89;100.00;100706.13;5041056;28;20040;-52
2022/10/31 10:34:05;;;;;;;6.63;0.60;;;;;;;13.79;100.00;100708.41;5027479;28;20072;-54
2022/10/31 10:37:08;;;;;;;10.07;0.77;;;;;;;14.00;100.00;100696.69;5040083;28;20053;-53
2022/10/31 10:39:43;;;;;;;3.78;0.65;;;;;;;14.21;100.00;100691.09;5022290;28;20045;-55
2022/10/31 10:48:08;;;;;;;5.80;0.77;;;;;;;14.34;100.00;100655.56;5027165;28;20067;-52
2022/10/31 10:50:39;;;;;;;13.75;1.80;;;;;;;14.56;100.00;100646.25;5032991;28;20041;-51
2022/10/31 10:53:59;;;;;;;5.50;1.10;;;;;;;14.82;100.00;100631.94;5024652;28;20125;-55
2022/10/31 10:56:50;;;;;;;4.15;0.88;;;;;;;14.66;100.00;100628.94;5042219;28;20126;-55
2022/10/31 10:59:21;;;;;;;3.60;0.35;;;;;;;14.75;100.00;100627.69;5033474;28;20044;-53
2022/10/31 11:01:49;;;;;;;12.52;1.50;;;;;;;14.74;100.00;100612.66;5036211;28;20399;-54
2022/10/31 11:04:24;;;;;;;2.90;0.88;;;;;;;14.75;100.00;100614.31;5039380;28;20029;-54
2022/10/31 11:06:58;;;;;;;8.18;1.95;;;;;;;14.64;100.00;100607.00;5044604;28;20060;-57
2022/10/31 11:09:24;;;;;;;6.10;1.42;;;;;;;14.59;100.00;100607.66;5040426;28;20036;-56
2022/10/31 11:11:49;;;;;;;7.38;1.50;;;;;;;14.51;100.00;100605.22;5033497;28;20045;-53
2022/10/31 11:14:17;;;;;;;5.47;1.67;;;;;;;14.55;100.00;100612.59;5043189;28;20021;-52
2022/10/31 11:16:47;;;;;;;4.35;1.30;;;;;;;14.68;100.00;100610.88;5035024;28;20045;-55
2022/10/31 11:19:14;;;;;;;7.15;2.65;;;;;;;14.66;100.00;100613.75;5029042;28;20029;-57
2022/10/31 11:21:40;;;;;;;4.60;0.80;;;;;;;14.77;100.00;100604.25;5031409;28;20074;-53
2022/10/31 11:24:08;;;;;;;9.98;1.13;;;;;;;14.76;100.00;100600.75;5037557;28;20079;-52
2022/10/31 11:26:35;;;;;;;3.08;0.63;;;;;;;14.67;100.00;100583.38;5037464;28;20033;-54
2022/10/31 11:29:03;;;;;;;5.25;1.52;;;;;;;14.77;100.00;100582.91;5036632;28;20403;-56
2022/10/31 11:31:29;;;;;;;5.57;1.50;;;;;;;14.74;100.00;100573.47;5032676;28;20041;-50
2022/10/31 11:34:01;;;;;;;2.35;0.63;;;;;;;14.87;100.00;100569.06;5038234;28;20447;-51
2022/10/31 11:36:28;;;;;;;;;;;;;;;15.02;100.00;100567.72;5029122;28;20029;-52